메인 페이지
METAR-TAF:

METAR-TAF

공항 :

애빌린, 텍사스, 미국

위도: 32-24-37N, 경도: 099-40-54W, 고도: 545m

현재 날씨관측

예보는 1 시간 12분 전, 20:52시(UTC)에 발표되었습니다.
9kt
온도 20°C
습도 23%
기압 1021 hPa
시정: 16.1km
맑음

METAR: KABI 192052Z 19009KT 10SM CLR 20/M02 A3015 RMK AO2 SLP199 T02001017 56029

시각: 17:04 (22:04 UTC)

예보

예보는 4 시간 41분 전, 17:23시(UTC)에 발표되었습니다.
예보 대상 시간: 19일 18시부터 20일 18시까지 (UTC)
14kt, 순간 최대 풍속 20kt
시정: 10km
고도 10000ft 상공 구름 보통
20일 0300시부터 (UTC)
8kt
시정: 10km
고도 10000ft 상공 구름 조금
20일 1200시부터 (UTC)
북북서10kt
시정: 10km
고도 3000ft 상공 구름 많음

TAF: KABI 191723Z 1918/2018 19014G20KT P6SM SCT100 FM200300 19008KT P6SM FEW100 FM201200 34010KT P6SM BKN030

4,000개 이상의 공항 관측 자료 및 예보 (METAR 및 TAF 보고).

지도상에서 검색 가능한 기상관측소가 노란 점과 빨간 점으로 표시되어 있습니다.

기상관측소 명을 보려면 표시 위로 마우스를 이동하세요.

날씨 관측과 예보를 보려면 클릭하세요.

지도 변경 : 확대하려면 엑스 표시가 있는 녹색 버튼, 축소하려면 빼기 표시가 있는 녹색 버튼, 다음 페이지의 지도를 보려면 녹색 화살표를 클릭하세요.


METAR-TAF: